createdAt,value
2023-07-11T00:01:02.918Z,21.87
2023-07-11T00:03:39.506Z,21.90
2023-07-11T00:06:10.366Z,21.93
2023-07-11T00:08:38.431Z,21.96
2023-07-11T00:11:11.892Z,21.99
2023-07-11T00:13:40.930Z,22.01
2023-07-11T00:16:12.291Z,22.01
2023-07-11T00:18:40.332Z,22.02
2023-07-11T00:21:08.619Z,22.02
2023-07-11T00:23:37.004Z,22.02
2023-07-11T00:26:05.740Z,22.02
2023-07-11T00:28:34.028Z,22.01
2023-07-11T00:31:02.150Z,21.99
2023-07-11T00:33:30.703Z,21.98
2023-07-11T00:35:58.573Z,21.96
2023-07-11T00:38:27.077Z,21.92
2023-07-11T00:40:54.851Z,21.88
2023-07-11T00:43:23.020Z,21.82
2023-07-11T00:46:12.500Z,21.76
2023-07-11T00:48:49.657Z,21.69
2023-07-11T00:51:21.794Z,21.63
2023-07-11T00:53:50.129Z,21.57
2023-07-11T00:56:22.503Z,21.50
2023-07-11T00:58:51.154Z,21.43
2023-07-11T01:01:20.211Z,21.35
2023-07-11T01:03:49.578Z,21.28
2023-07-11T01:06:21.427Z,21.21
2023-07-11T01:08:51.301Z,21.13
2023-07-11T01:11:20.596Z,21.05
2023-07-11T01:13:48.766Z,20.99
2023-07-11T01:16:16.892Z,20.94
2023-07-11T01:18:44.992Z,20.91
2023-07-11T01:21:18.330Z,20.87
2023-07-11T01:23:48.490Z,20.82
2023-07-11T01:26:16.979Z,20.76
2023-07-11T01:28:47.309Z,20.72
2023-07-11T01:31:15.239Z,20.68
2023-07-11T01:33:43.068Z,20.64
2023-07-11T01:36:11.086Z,20.61
2023-07-11T01:38:38.940Z,20.58
2023-07-11T01:41:06.656Z,20.55
2023-07-11T01:43:34.479Z,20.52
2023-07-11T01:46:02.258Z,20.49
2023-07-11T01:48:30.903Z,20.48
2023-07-11T01:50:58.562Z,20.47
2023-07-11T01:53:26.337Z,20.44
2023-07-11T01:55:58.727Z,20.43
2023-07-11T01:58:27.840Z,20.43
2023-07-11T02:00:58.212Z,20.43
2023-07-11T02:03:26.683Z,20.42
2023-07-11T02:05:55.573Z,20.41
2023-07-11T02:08:23.319Z,20.38
2023-07-11T02:10:50.983Z,20.36
2023-07-11T02:13:18.658Z,20.35
2023-07-11T02:15:46.670Z,20.34
2023-07-11T02:18:14.448Z,20.32
2023-07-11T02:20:45.701Z,20.29
2023-07-11T02:23:14.826Z,20.28
2023-07-11T02:25:43.665Z,20.26
2023-07-11T02:28:11.670Z,20.21
2023-07-11T02:30:39.708Z,20.17
2023-07-11T02:33:07.608Z,20.15
2023-07-11T02:35:35.532Z,20.13
2023-07-11T02:38:03.384Z,20.12
2023-07-11T02:40:31.148Z,20.12
2023-07-11T02:42:58.861Z,20.12
2023-07-11T02:45:26.763Z,20.10
2023-07-11T02:47:54.652Z,20.09
2023-07-11T02:50:22.347Z,20.08
2023-07-11T02:52:50.253Z,20.06
2023-07-11T02:55:18.149Z,20.01
2023-07-11T02:57:45.990Z,19.97
2023-07-11T03:00:14.504Z,19.94
2023-07-11T03:02:42.210Z,19.93
2023-07-11T03:05:10.516Z,19.93
2023-07-11T03:07:38.357Z,19.93
2023-07-11T03:10:06.919Z,19.92
2023-07-11T03:12:34.590Z,19.90
2023-07-11T03:15:04.632Z,19.86
2023-07-11T03:17:33.223Z,19.85
2023-07-11T03:20:01.346Z,19.85
2023-07-11T03:22:29.558Z,19.84
2023-07-11T03:24:57.312Z,19.83
2023-07-11T03:27:25.004Z,19.82
2023-07-11T03:29:52.671Z,19.81
2023-07-11T03:32:20.421Z,19.78
2023-07-11T03:34:54.184Z,19.78
2023-07-11T03:37:26.597Z,19.77
2023-07-11T03:39:54.708Z,19.75
2023-07-11T03:42:22.558Z,19.73
2023-07-11T03:44:50.339Z,19.70
2023-07-11T03:47:18.440Z,19.66
2023-07-11T03:49:46.104Z,19.64
2023-07-11T03:52:13.944Z,19.63
2023-07-11T03:54:41.662Z,19.59
2023-07-11T03:57:09.534Z,19.57
2023-07-11T03:59:37.233Z,19.55
2023-07-11T04:02:05.407Z,19.53
2023-07-11T04:04:34.273Z,19.52
2023-07-11T04:07:03.445Z,19.50
2023-07-11T04:09:31.155Z,19.48
2023-07-11T04:11:58.978Z,19.49
2023-07-11T04:14:26.667Z,19.47
2023-07-11T04:16:54.558Z,19.46
2023-07-11T04:19:22.618Z,19.46
2023-07-11T04:21:50.354Z,19.44
2023-07-11T04:24:18.038Z,19.44
2023-07-11T04:26:46.909Z,19.43
2023-07-11T04:29:14.630Z,19.45
2023-07-11T04:31:42.359Z,19.49
2023-07-11T04:34:10.048Z,19.64
2023-07-11T04:36:37.743Z,19.70
2023-07-11T04:39:05.620Z,19.70
2023-07-11T04:41:33.383Z,19.73
2023-07-11T04:44:01.057Z,19.75
2023-07-11T04:46:28.853Z,19.82
2023-07-11T04:48:56.670Z,19.93
2023-07-11T04:51:24.406Z,19.95
2023-07-11T04:53:52.124Z,19.92
2023-07-11T04:56:19.864Z,19.90
2023-07-11T04:58:47.541Z,19.91
2023-07-11T05:01:18.594Z,19.96
2023-07-11T05:03:49.954Z,20.01
2023-07-11T05:06:18.048Z,20.04
2023-07-11T05:08:45.753Z,20.15
2023-07-11T05:11:16.443Z,20.28
2023-07-11T05:13:46.330Z,20.31
2023-07-11T05:16:17.098Z,20.30
2023-07-11T05:18:46.385Z,20.26
2023-07-11T05:21:16.980Z,20.25
2023-07-11T05:23:45.124Z,20.22
2023-07-11T05:26:14.279Z,20.18
2023-07-11T05:28:42.006Z,20.16
2023-07-11T05:31:10.270Z,20.15
2023-07-11T05:33:38.209Z,20.12
2023-07-11T05:36:22.052Z,20.14
2023-07-11T05:38:50.794Z,20.15
2023-07-11T05:41:20.311Z,20.14
2023-07-11T05:43:48.677Z,20.18
2023-07-11T05:46:16.866Z,20.28
2023-07-11T05:48:44.778Z,20.30
2023-07-11T05:51:15.817Z,20.30
2023-07-11T05:53:44.578Z,20.35
2023-07-11T05:56:12.563Z,20.55
2023-07-11T05:58:40.988Z,20.86
2023-07-11T06:01:08.872Z,20.98
2023-07-11T06:03:36.721Z,21.12
2023-07-11T06:06:06.570Z,21.21
2023-07-11T06:08:34.633Z,21.43
2023-07-11T06:11:04.231Z,21.50
2023-07-11T06:13:33.692Z,21.51
2023-07-11T06:16:05.251Z,21.50
2023-07-11T06:18:35.841Z,21.48
2023-07-11T06:21:04.880Z,21.47
2023-07-11T06:23:32.934Z,21.50
2023-07-11T06:26:00.953Z,21.53
2023-07-11T06:28:28.946Z,21.56
2023-07-11T06:31:00.380Z,21.56
2023-07-11T06:33:29.195Z,21.58
2023-07-11T06:35:57.997Z,21.65
2023-07-11T06:38:25.808Z,21.69
2023-07-11T06:40:55.968Z,21.61
2023-07-11T06:43:25.356Z,21.66
2023-07-11T06:45:55.279Z,21.84
2023-07-11T06:48:26.780Z,21.91
2023-07-11T06:51:05.023Z,22.01
2023-07-11T06:53:34.477Z,22.15
2023-07-11T06:56:03.355Z,22.27
2023-07-11T06:58:31.651Z,22.31
2023-07-11T07:01:11.340Z,22.39
2023-07-11T07:03:44.431Z,22.54
2023-07-11T07:06:14.098Z,22.55
2023-07-11T07:08:42.030Z,22.57
2023-07-11T07:11:10.723Z,22.64
2023-07-11T07:13:43.702Z,22.72
2023-07-11T07:16:16.740Z,22.78
2023-07-11T07:18:45.404Z,22.85
2023-07-11T07:21:13.337Z,22.97
2023-07-11T07:23:42.127Z,23.06
2023-07-11T07:26:09.787Z,23.12
2023-07-11T07:28:37.498Z,23.20
2023-07-11T07:31:07.570Z,23.37
2023-07-11T07:33:36.497Z,23.69
2023-07-11T07:36:06.566Z,24.22
2023-07-11T07:38:34.973Z,24.80
2023-07-11T07:41:08.189Z,25.31
2023-07-11T07:43:37.490Z,25.84
2023-07-11T07:46:06.249Z,26.49
2023-07-11T07:48:34.549Z,27.07
2023-07-11T07:51:09.053Z,27.60
2023-07-11T07:53:37.093Z,28.13
2023-07-11T07:56:06.929Z,28.57
2023-07-11T08:01:07.432Z,28.83
2023-07-11T08:03:37.366Z,28.57
2023-07-11T08:06:15.313Z,28.96
2023-07-11T08:08:48.941Z,29.33
2023-07-11T08:11:18.956Z,29.23
2023-07-11T08:18:48.515Z,29.74
2023-07-11T08:21:16.183Z,30.25
2023-07-11T08:23:43.858Z,30.64
2023-07-11T08:26:12.007Z,30.79
2023-07-11T08:28:42.849Z,30.87
2023-07-11T08:31:11.379Z,30.82
2023-07-11T08:33:39.568Z,30.55
2023-07-11T08:36:07.770Z,30.54
2023-07-11T08:38:35.531Z,30.57
2023-07-11T08:41:11.818Z,30.66
2023-07-11T08:43:39.618Z,30.79
2023-07-11T08:46:13.868Z,30.60
2023-07-11T08:48:47.218Z,30.29
2023-07-11T08:51:20.696Z,30.28
2023-07-11T08:53:57.456Z,30.35
2023-07-11T08:56:43.299Z,30.35
2023-07-11T08:59:16.152Z,30.04
2023-07-11T09:01:54.131Z,29.49
2023-07-11T09:04:23.899Z,29.42
2023-07-11T09:06:55.707Z,29.53
2023-07-11T09:09:23.950Z,29.37
2023-07-11T09:12:13.486Z,29.05
2023-07-11T09:14:47.092Z,28.83
2023-07-11T09:17:36.550Z,28.58
2023-07-11T09:20:29.999Z,28.30
2023-07-11T09:23:33.276Z,27.94
2023-07-11T09:26:10.000Z,27.69
2023-07-11T09:28:39.160Z,27.47
2023-07-11T09:31:10.891Z,27.28
2023-07-11T09:33:41.041Z,27.15
2023-07-11T09:36:31.497Z,26.98
2023-07-11T09:39:13.876Z,26.80
2023-07-11T09:42:06.175Z,26.65
2023-07-11T09:44:34.531Z,26.64
2023-07-11T09:47:18.886Z,26.81
2023-07-11T09:49:48.217Z,26.80
2023-07-11T09:52:27.797Z,26.77
2023-07-11T09:55:07.841Z,26.69
2023-07-11T09:57:45.693Z,26.62
2023-07-11T10:02:48.781Z,26.60
2023-07-11T10:05:18.471Z,26.58
2023-07-11T10:07:48.770Z,26.58
2023-07-11T10:10:16.958Z,26.49
2023-07-11T10:12:46.501Z,26.36
2023-07-11T10:15:16.329Z,26.22
2023-07-11T10:17:45.252Z,26.15
2023-07-11T10:20:19.722Z,26.12
2023-07-11T10:22:51.439Z,26.08
2023-07-11T10:25:23.018Z,26.05
2023-07-11T10:27:57.913Z,25.98
2023-07-11T10:30:28.754Z,25.90
2023-07-11T10:33:23.368Z,25.84
2023-07-11T10:36:04.560Z,25.79
2023-07-11T10:39:00.127Z,25.85
2023-07-11T10:41:42.104Z,26.08
2023-07-11T10:44:23.364Z,26.26
2023-07-11T10:46:53.372Z,26.48
2023-07-11T10:49:30.348Z,26.78
2023-07-11T10:52:20.961Z,26.93
2023-07-11T10:55:30.045Z,26.94
2023-07-11T10:57:58.958Z,27.03
2023-07-11T11:01:06.980Z,27.09
2023-07-11T11:03:45.040Z,27.14
2023-07-11T11:06:33.032Z,27.09
2023-07-11T11:09:16.972Z,26.99
2023-07-11T11:12:30.499Z,26.95
2023-07-11T11:15:24.452Z,26.90
2023-07-11T11:18:18.524Z,27.00
2023-07-11T11:21:13.280Z,27.17
2023-07-11T11:24:00.574Z,27.22
2023-07-11T11:26:33.972Z,27.18
2023-07-11T11:29:24.503Z,27.13
2023-07-11T11:32:00.754Z,27.02
2023-07-11T11:35:15.341Z,27.00
2023-07-11T11:38:18.507Z,26.91
2023-07-11T11:40:50.739Z,26.80
2023-07-11T11:43:29.645Z,26.85
2023-07-11T11:46:29.004Z,26.98
2023-07-11T11:51:24.916Z,27.14
2023-07-11T11:54:14.779Z,27.20
2023-07-11T11:56:48.059Z,27.25
2023-07-11T11:59:19.291Z,27.30
2023-07-11T12:02:01.537Z,27.30
2023-07-11T12:04:35.956Z,27.24
2023-07-11T12:07:07.679Z,27.16
2023-07-11T12:09:49.419Z,27.23
2023-07-11T12:12:20.590Z,27.32
2023-07-11T12:14:51.404Z,27.44
2023-07-11T12:17:34.732Z,27.56
2023-07-11T12:20:06.487Z,27.63
2023-07-11T12:22:40.354Z,27.63
2023-07-11T12:25:18.848Z,27.51
2023-07-11T12:28:01.719Z,27.46
2023-07-11T12:30:39.801Z,27.50
2023-07-11T12:33:38.965Z,27.60
2023-07-11T12:36:06.972Z,27.72
2023-07-11T12:38:56.896Z,27.72
2023-07-11T12:41:43.333Z,27.69
2023-07-11T12:44:16.490Z,27.71
2023-07-11T12:46:46.618Z,27.77
2023-07-11T12:49:25.651Z,27.90
2023-07-11T12:52:07.441Z,27.98
2023-07-11T12:54:35.799Z,28.04
2023-07-11T12:57:04.208Z,28.15
2023-07-11T12:59:32.378Z,28.21
2023-07-11T13:02:05.953Z,28.26
2023-07-11T13:04:45.978Z,28.35
2023-07-11T13:07:17.586Z,28.45
2023-07-11T13:09:50.059Z,28.58
2023-07-11T13:12:23.816Z,28.61
2023-07-11T13:14:52.091Z,28.59
2023-07-11T13:17:26.983Z,28.53
2023-07-11T13:20:00.103Z,28.42
2023-07-11T13:22:28.590Z,28.40
2023-07-11T13:24:58.094Z,28.43
2023-07-11T13:27:35.347Z,28.49
2023-07-11T13:30:03.539Z,28.51
2023-07-11T13:32:31.341Z,28.51
2023-07-11T13:35:22.549Z,28.45
2023-07-11T13:37:51.389Z,28.28
2023-07-11T13:40:39.096Z,28.16
2023-07-11T13:43:21.477Z,28.03
2023-07-11T13:45:51.846Z,27.89
2023-07-11T13:48:27.753Z,27.76
2023-07-11T13:51:17.607Z,27.62
2023-07-11T13:53:50.264Z,27.48
2023-07-11T13:56:18.403Z,27.40
2023-07-11T13:58:47.469Z,27.40
2023-07-11T14:01:20.075Z,27.38
2023-07-11T14:03:48.443Z,27.36
2023-07-11T14:06:17.507Z,27.35
2023-07-11T14:08:45.173Z,27.33
2023-07-11T14:11:15.904Z,27.26
2023-07-11T14:13:43.698Z,27.23
2023-07-11T14:16:11.852Z,27.26
2023-07-11T14:18:39.552Z,27.36
2023-07-11T14:21:10.808Z,27.47
2023-07-11T14:23:38.487Z,27.60
2023-07-11T14:26:06.186Z,27.69
2023-07-11T14:28:34.059Z,27.77
2023-07-11T14:31:03.248Z,27.82
2023-07-11T14:33:34.311Z,27.86
2023-07-11T14:36:02.310Z,27.92
2023-07-11T14:38:30.141Z,27.99
2023-07-11T14:40:58.016Z,28.08
2023-07-11T14:43:27.422Z,28.16
2023-07-11T14:45:55.365Z,28.19
2023-07-11T14:48:27.588Z,28.18
2023-07-11T14:51:02.323Z,28.17
2023-07-11T14:53:32.418Z,28.17
2023-07-11T14:57:14.934Z,28.17
2023-07-11T14:58:51.248Z,28.19
2023-07-11T15:01:19.329Z,28.23
2023-07-11T15:16:29.238Z,27.80
2023-07-11T15:18:56.993Z,27.75
2023-07-11T15:21:24.760Z,27.71
2023-07-11T15:23:52.445Z,27.69
2023-07-11T15:26:25.624Z,27.66
2023-07-11T15:28:54.297Z,27.63
2023-07-11T15:31:22.152Z,27.63
2023-07-11T15:33:51.471Z,27.59
2023-07-11T15:36:19.104Z,27.57
2023-07-11T15:38:47.008Z,27.58
2023-07-11T15:41:17.340Z,27.59
2023-07-11T15:43:45.583Z,27.59
2023-07-11T15:46:21.304Z,27.61
2023-07-11T15:48:51.728Z,27.60
2023-07-11T15:51:19.706Z,27.54
2023-07-11T15:53:47.434Z,27.48
2023-07-11T15:56:15.735Z,27.42
2023-07-11T15:58:43.430Z,27.33
2023-07-11T16:01:11.159Z,27.25
2023-07-11T16:03:39.164Z,27.17
2023-07-11T16:06:12.756Z,27.10
2023-07-11T16:08:40.430Z,27.06
2023-07-11T16:11:10.762Z,27.04
2023-07-11T16:13:39.233Z,27.07
2023-07-11T16:16:15.779Z,27.12
2023-07-11T16:18:43.717Z,27.17
2023-07-11T16:21:14.575Z,27.20
2023-07-11T16:23:42.360Z,27.21
2023-07-11T16:26:20.162Z,27.21
2023-07-11T16:28:48.313Z,27.18
2023-07-11T16:31:16.053Z,27.16
2023-07-11T16:33:44.062Z,27.15
2023-07-11T16:36:15.662Z,27.13
2023-07-11T16:38:43.637Z,27.11
2023-07-11T16:41:11.451Z,27.11
2023-07-11T16:43:39.154Z,27.11
2023-07-11T16:46:09.929Z,27.11
2023-07-11T16:48:37.762Z,27.11
2023-07-11T16:51:09.843Z,27.12
2023-07-11T16:53:37.818Z,27.12
2023-07-11T16:56:05.781Z,27.12
2023-07-11T16:58:41.947Z,27.12
2023-07-11T17:01:15.956Z,27.11
2023-07-11T17:03:44.229Z,27.05
2023-07-11T17:06:26.351Z,26.96
2023-07-11T17:08:55.724Z,26.86
2023-07-11T17:11:23.670Z,26.77
2023-07-11T17:13:51.506Z,26.69
2023-07-11T17:16:22.920Z,26.63
2023-07-11T17:18:50.770Z,26.59
2023-07-11T17:21:18.615Z,26.53
2023-07-11T17:23:46.763Z,26.48
2023-07-11T17:26:15.750Z,26.43
2023-07-11T17:28:43.548Z,26.38
2023-07-11T17:31:15.809Z,26.30
2023-07-11T17:33:43.834Z,26.24
2023-07-11T17:36:15.695Z,26.22
2023-07-11T17:38:45.329Z,26.19
2023-07-11T17:41:12.995Z,26.16
2023-07-11T17:43:42.375Z,26.14
2023-07-11T17:46:41.044Z,26.12
2023-07-11T17:49:04.717Z,26.03
2023-07-11T17:51:33.703Z,25.93
2023-07-11T17:54:01.484Z,25.87
2023-07-11T17:56:47.657Z,25.81
2023-07-11T17:59:18.623Z,25.74
2023-07-11T18:01:49.136Z,25.66
2023-07-11T18:04:17.154Z,25.62
2023-07-11T18:06:45.207Z,25.57
2023-07-11T18:09:12.878Z,25.52
2023-07-11T18:11:40.540Z,25.47
2023-07-11T18:14:08.361Z,25.43
2023-07-11T18:16:36.359Z,25.39
2023-07-11T18:19:04.330Z,25.34
2023-07-11T18:21:32.170Z,25.28
2023-07-11T18:23:59.810Z,25.19
2023-07-11T18:26:27.768Z,25.08
2023-07-11T18:28:55.443Z,24.96
2023-07-11T18:31:23.309Z,24.84
2023-07-11T18:33:51.738Z,24.72
2023-07-11T18:36:24.927Z,24.57
2023-07-11T18:38:53.708Z,24.40
2023-07-11T18:41:21.548Z,24.25
2023-07-11T18:43:49.609Z,24.11
2023-07-11T18:46:18.781Z,23.98
2023-07-11T18:48:46.912Z,23.83
2023-07-11T18:51:16.398Z,23.67
2023-07-11T18:53:44.758Z,23.52
2023-07-11T18:56:20.005Z,23.36
2023-07-11T18:58:47.684Z,23.19
2023-07-11T19:01:15.704Z,23.04
2023-07-11T19:03:44.117Z,22.91
2023-07-11T19:06:17.359Z,22.78
2023-07-11T19:08:48.572Z,22.63
2023-07-11T19:11:18.139Z,22.47
2023-07-11T19:13:46.448Z,22.32
2023-07-11T19:16:19.300Z,22.18
2023-07-11T19:18:47.217Z,22.05
2023-07-11T19:21:15.595Z,21.91
2023-07-11T19:23:43.562Z,21.77
2023-07-11T19:26:18.923Z,21.65
2023-07-11T19:28:47.090Z,21.56
2023-07-11T19:31:16.673Z,21.48
2023-07-11T19:33:44.641Z,21.37
2023-07-11T19:36:17.900Z,21.27
2023-07-11T19:38:46.575Z,21.16
2023-07-11T19:41:17.011Z,21.06
2023-07-11T19:43:47.117Z,20.94
2023-07-11T19:46:17.536Z,20.85
2023-07-11T19:48:45.868Z,20.74
2023-07-11T19:51:13.956Z,20.65
2023-07-11T19:53:42.585Z,20.55
2023-07-11T19:56:22.298Z,20.46
2023-07-11T19:58:50.901Z,20.37
2023-07-11T20:01:19.006Z,20.30
2023-07-11T20:03:46.984Z,20.22
2023-07-11T20:06:23.148Z,20.15
2023-07-11T20:08:52.272Z,20.06
2023-07-11T20:11:20.186Z,19.99
2023-07-11T20:13:48.417Z,19.92
2023-07-11T20:16:24.355Z,19.85
2023-07-11T20:18:52.994Z,19.78
2023-07-11T20:21:22.618Z,19.74
2023-07-11T20:23:52.521Z,19.69
2023-07-11T20:26:25.328Z,19.66
2023-07-11T20:28:54.323Z,19.61
2023-07-11T20:31:23.078Z,19.56
2023-07-11T20:33:50.972Z,19.53
2023-07-11T20:36:25.452Z,19.48
2023-07-11T20:38:55.540Z,19.43
2023-07-11T20:41:24.234Z,19.38
2023-07-11T20:43:52.128Z,19.35
2023-07-11T20:46:22.211Z,19.31
2023-07-11T20:48:50.842Z,19.28
2023-07-11T20:51:20.186Z,19.27
2023-07-11T20:53:48.766Z,19.27
2023-07-11T20:56:24.308Z,19.27
2023-07-11T20:58:55.731Z,19.28
2023-07-11T21:01:24.730Z,19.30
2023-07-11T21:03:52.680Z,19.33
2023-07-11T21:06:30.353Z,19.37
2023-07-11T21:08:58.946Z,19.42
2023-07-11T21:11:26.891Z,19.47
2023-07-11T21:13:55.096Z,19.53
2023-07-11T21:16:26.128Z,19.58
2023-07-11T21:18:54.130Z,19.65
2023-07-11T21:21:22.279Z,19.70
2023-07-11T21:23:50.188Z,19.76
2023-07-11T21:26:19.948Z,19.80
2023-07-11T21:28:48.191Z,19.84
2023-07-11T21:31:18.438Z,19.87
2023-07-11T21:33:47.796Z,19.89
2023-07-11T21:36:20.957Z,19.92
2023-07-11T21:38:50.348Z,19.94
2023-07-11T21:41:20.737Z,19.95
2023-07-11T21:43:48.695Z,19.98
2023-07-11T21:46:16.595Z,19.98
2023-07-11T21:48:44.350Z,19.97
2023-07-11T21:51:14.951Z,19.98
2023-07-11T21:53:42.664Z,19.97
2023-07-11T21:56:10.552Z,19.97
2023-07-11T21:58:38.313Z,19.97
2023-07-11T22:01:06.447Z,19.97
2023-07-11T22:03:36.125Z,19.97
2023-07-11T22:06:39.558Z,19.97
2023-07-11T22:09:07.219Z,19.93
2023-07-11T22:11:34.993Z,19.91
2023-07-11T22:14:03.574Z,19.92
2023-07-11T22:16:31.410Z,19.94
2023-07-11T22:18:59.643Z,19.94
2023-07-11T22:21:27.965Z,19.94
2023-07-11T22:23:57.852Z,19.95
2023-07-11T22:26:30.894Z,19.96
2023-07-11T22:29:02.676Z,19.98
2023-07-11T22:31:31.063Z,20.01
2023-07-11T22:33:58.934Z,20.02
2023-07-11T22:36:26.709Z,20.04
2023-07-11T22:38:54.363Z,20.03
2023-07-11T22:41:22.150Z,20.03
2023-07-11T22:43:49.846Z,20.02
2023-07-11T22:46:20.183Z,20.01
2023-07-11T22:48:49.367Z,20.00
2023-07-11T22:51:18.460Z,19.99
2023-07-11T22:53:47.833Z,19.98
2023-07-11T22:56:21.405Z,19.97
2023-07-11T22:58:50.135Z,19.97
2023-07-11T23:01:19.562Z,19.96
2023-07-11T23:03:47.687Z,19.95
2023-07-11T23:06:21.215Z,19.95
2023-07-11T23:08:49.588Z,19.94
2023-07-11T23:11:18.150Z,19.92
2023-07-11T23:13:46.681Z,19.92
2023-07-11T23:16:20.128Z,19.90
2023-07-11T23:18:48.037Z,19.87
2023-07-11T23:21:15.932Z,19.86
2023-07-11T23:23:43.688Z,19.86
2023-07-11T23:26:13.989Z,19.85
2023-07-11T23:28:42.098Z,19.86
2023-07-11T23:31:10.974Z,19.89
2023-07-11T23:33:39.631Z,19.92
2023-07-11T23:36:13.570Z,19.95
2023-07-11T23:38:41.323Z,19.98
2023-07-11T23:41:15.605Z,19.99
2023-07-11T23:43:44.870Z,19.99
2023-07-11T23:46:21.692Z,19.98
2023-07-11T23:48:50.932Z,19.97
2023-07-11T23:51:20.365Z,19.95
2023-07-11T23:53:50.224Z,19.93
2023-07-11T23:56:26.839Z,19.91
2023-07-11T23:58:55.823Z,19.91
